createdAt,value
2023-05-20T00:01:54.291Z,99.90
2023-05-20T00:04:21.467Z,99.90
2023-05-20T00:06:48.257Z,99.90
2023-05-20T00:09:15.930Z,99.90
2023-05-20T00:11:43.209Z,99.90
2023-05-20T00:14:09.996Z,99.90
2023-05-20T00:16:36.798Z,99.90
2023-05-20T00:19:03.734Z,99.90
2023-05-20T00:21:31.238Z,99.90
2023-05-20T00:23:58.389Z,99.90
2023-05-20T00:26:25.905Z,99.90
2023-05-20T00:28:54.958Z,99.90
2023-05-20T00:31:21.814Z,99.90
2023-05-20T00:33:48.785Z,99.90
2023-05-20T00:36:15.857Z,99.90
2023-05-20T00:38:42.548Z,99.90
2023-05-20T00:41:09.461Z,99.90
2023-05-20T00:43:36.414Z,99.90
2023-05-20T00:46:03.378Z,99.90
2023-05-20T00:48:39.907Z,99.90
2023-05-20T00:51:07.611Z,99.90
2023-05-20T00:53:36.621Z,99.90
2023-05-20T00:56:07.274Z,99.90
2023-05-20T00:58:36.803Z,99.90
2023-05-20T01:01:06.430Z,99.90
2023-05-20T01:03:33.786Z,99.90
2023-05-20T01:06:01.238Z,99.90
2023-05-20T01:08:28.772Z,99.90
2023-05-20T01:11:04.960Z,99.90
2023-05-20T01:13:45.103Z,99.90
2023-05-20T01:16:12.316Z,99.90
2023-05-20T01:18:41.987Z,99.90
2023-05-20T01:21:13.283Z,99.90
2023-05-20T01:23:41.339Z,99.90
2023-05-20T01:26:13.811Z,99.90
2023-05-20T01:28:43.632Z,99.90
2023-05-20T01:31:23.682Z,99.90
2023-05-20T01:33:58.405Z,99.90
2023-05-20T01:36:27.815Z,99.90
2023-05-20T01:38:56.050Z,99.90
2023-05-20T01:41:25.344Z,99.90
2023-05-20T01:43:53.868Z,99.90
2023-05-20T01:46:20.806Z,99.90
2023-05-20T01:48:48.831Z,99.90
2023-05-20T01:51:16.076Z,99.90
2023-05-20T01:53:44.159Z,99.90
2023-05-20T01:56:11.069Z,99.90
2023-05-20T01:58:37.755Z,99.90
2023-05-20T02:01:04.641Z,99.90
2023-05-20T02:03:31.430Z,99.90
2023-05-20T02:05:59.740Z,99.90
2023-05-20T02:08:26.732Z,99.90
2023-05-20T02:10:53.459Z,99.90
2023-05-20T02:13:20.549Z,99.90
2023-05-20T02:15:48.356Z,99.90
2023-05-20T02:18:18.477Z,99.90
2023-05-20T02:20:45.353Z,99.90
2023-05-20T02:23:12.133Z,99.90
2023-05-20T02:25:39.625Z,99.90
2023-05-20T02:28:10.596Z,99.90
2023-05-20T02:30:40.372Z,99.90
2023-05-20T02:33:08.357Z,99.90
2023-05-20T02:35:36.857Z,99.90
2023-05-20T02:38:03.744Z,99.90
2023-05-20T02:40:30.590Z,99.90
2023-05-20T02:42:57.990Z,99.90
2023-05-20T02:45:24.976Z,99.90
2023-05-20T02:47:51.945Z,99.90
2023-05-20T02:50:18.773Z,99.90
2023-05-20T02:52:46.275Z,99.90
2023-05-20T02:55:13.475Z,99.90
2023-05-20T02:57:40.539Z,99.90
2023-05-20T03:00:11.700Z,99.90
2023-05-20T03:02:38.911Z,99.90
2023-05-20T03:05:07.975Z,99.90
2023-05-20T03:07:36.908Z,99.90
2023-05-20T03:10:07.095Z,99.90
2023-05-20T03:12:34.008Z,99.90
2023-05-20T03:15:01.111Z,99.90
2023-05-20T03:17:28.265Z,99.90
2023-05-20T03:19:55.097Z,99.90
2023-05-20T03:22:22.997Z,99.90
2023-05-20T03:24:49.870Z,99.90
2023-05-20T03:27:16.732Z,99.90
2023-05-20T03:29:43.573Z,99.90
2023-05-20T03:32:11.067Z,99.90
2023-05-20T03:34:38.401Z,99.90
2023-05-20T03:37:05.874Z,99.90
2023-05-20T03:39:32.728Z,99.90
2023-05-20T03:42:00.389Z,99.90
2023-05-20T03:44:27.245Z,99.90
2023-05-20T03:46:54.627Z,99.90
2023-05-20T03:49:21.399Z,99.90
2023-05-20T03:51:48.155Z,99.90
2023-05-20T03:54:17.390Z,99.90
2023-05-20T03:56:49.231Z,99.90
2023-05-20T03:59:16.289Z,99.90
2023-05-20T04:01:43.115Z,99.90
2023-05-20T04:04:10.957Z,99.90
2023-05-20T04:06:37.746Z,99.90
2023-05-20T04:09:04.768Z,99.90
2023-05-20T04:11:31.824Z,99.90
2023-05-20T04:14:00.181Z,99.90
2023-05-20T04:16:27.111Z,99.90
2023-05-20T04:18:53.981Z,99.90
2023-05-20T04:21:20.935Z,99.90
2023-05-20T04:23:48.405Z,99.90
2023-05-20T04:26:15.424Z,99.90
2023-05-20T04:28:42.356Z,99.90
2023-05-20T04:31:10.636Z,99.90
2023-05-20T04:33:38.666Z,99.90
2023-05-20T04:36:16.378Z,99.90
2023-05-20T04:38:45.597Z,99.90
2023-05-20T04:41:16.111Z,99.90
2023-05-20T04:43:45.983Z,99.90
2023-05-20T04:46:13.037Z,99.90
2023-05-20T04:48:43.071Z,99.90
2023-05-20T04:51:10.574Z,99.90
2023-05-20T04:53:38.661Z,99.90
2023-05-20T04:56:05.807Z,99.90
2023-05-20T04:58:33.509Z,99.90
2023-05-20T05:01:01.459Z,99.90
2023-05-20T05:03:28.513Z,99.90
2023-05-20T05:05:59.809Z,99.90
2023-05-20T05:08:26.947Z,99.90
2023-05-20T05:10:54.735Z,99.90
2023-05-20T05:13:21.614Z,99.90
2023-05-20T05:15:48.929Z,99.90
2023-05-20T05:18:18.525Z,99.90
2023-05-20T05:20:45.680Z,99.90
2023-05-20T05:23:13.258Z,99.90
2023-05-20T05:25:41.015Z,99.90
2023-05-20T05:28:07.873Z,99.90
2023-05-20T05:30:35.015Z,99.90
2023-05-20T05:33:02.057Z,99.90
2023-05-20T05:35:29.274Z,99.90
2023-05-20T05:37:56.478Z,99.90
2023-05-20T05:40:23.326Z,99.90
2023-05-20T05:42:50.373Z,99.90
2023-05-20T05:45:17.171Z,99.90
2023-05-20T05:47:43.936Z,99.90
2023-05-20T05:50:11.309Z,99.90
2023-05-20T05:52:38.320Z,99.90
2023-05-20T05:55:09.806Z,99.90
2023-05-20T05:57:37.053Z,99.90
2023-05-20T06:00:04.654Z,99.90
2023-05-20T06:02:45.160Z,99.90
2023-05-20T06:05:15.812Z,99.90
2023-05-20T06:07:42.705Z,99.90
2023-05-20T06:10:10.857Z,99.90
2023-05-20T06:12:37.791Z,99.90
2023-05-20T06:15:04.810Z,99.90
2023-05-20T06:17:31.899Z,99.90
2023-05-20T06:19:58.786Z,99.90
2023-05-20T06:22:25.612Z,99.90
2023-05-20T06:24:54.082Z,99.90
2023-05-20T06:27:21.285Z,99.90
2023-05-20T06:29:48.185Z,99.90
2023-05-20T06:32:14.925Z,99.90
2023-05-20T06:34:41.966Z,99.90
2023-05-20T06:37:08.917Z,99.90
2023-05-20T06:39:36.173Z,99.90
2023-05-20T06:42:03.303Z,99.90
2023-05-20T06:44:35.094Z,99.90
2023-05-20T06:47:16.170Z,99.90
2023-05-20T06:49:47.273Z,99.90
2023-05-20T06:52:14.515Z,99.90
2023-05-20T06:54:41.995Z,99.90
2023-05-20T06:57:10.934Z,99.90
2023-05-20T06:59:38.056Z,99.90
2023-05-20T07:02:06.632Z,99.90
2023-05-20T07:04:33.847Z,99.90
2023-05-20T07:07:00.898Z,99.90
2023-05-20T07:09:28.058Z,99.90
2023-05-20T07:11:54.948Z,99.90
2023-05-20T07:14:21.936Z,99.90
2023-05-20T07:16:48.845Z,99.90
2023-05-20T07:19:16.224Z,99.90
2023-05-20T07:21:43.164Z,99.90
2023-05-20T07:24:23.191Z,99.90
2023-05-20T07:26:50.149Z,99.90
2023-05-20T07:29:17.116Z,99.90
2023-05-20T07:31:44.469Z,99.90
2023-05-20T07:34:11.413Z,99.90
2023-05-20T07:36:38.337Z,99.90
2023-05-20T07:39:10.376Z,99.90
2023-05-20T07:41:40.565Z,99.90
2023-05-20T07:44:08.792Z,99.90
2023-05-20T07:46:39.655Z,99.90
2023-05-20T07:49:07.733Z,99.90
2023-05-20T07:51:34.975Z,99.90
2023-05-20T07:54:01.960Z,99.90
2023-05-20T07:56:28.918Z,99.90
2023-05-20T07:59:03.247Z,99.90
2023-05-20T08:01:34.732Z,99.90
2023-05-20T08:04:03.137Z,99.90
2023-05-20T08:06:30.208Z,99.90
2023-05-20T08:08:58.480Z,99.90
2023-05-20T08:11:30.537Z,99.90
2023-05-20T08:13:57.937Z,99.90
2023-05-20T08:16:27.591Z,99.90
2023-05-20T08:18:55.235Z,99.90
2023-05-20T08:21:22.337Z,99.90
2023-05-20T08:23:49.215Z,99.90
2023-05-20T08:26:17.140Z,99.90
2023-05-20T08:31:49.739Z,99.90
2023-05-20T08:34:17.669Z,99.90
2023-05-20T08:36:46.080Z,99.90
2023-05-20T08:39:13.652Z,99.90
2023-05-20T08:41:40.549Z,99.90
2023-05-20T08:44:09.701Z,99.90
2023-05-20T08:46:38.321Z,99.90
2023-05-20T08:49:07.729Z,99.90
2023-05-20T08:51:37.365Z,99.90
2023-05-20T08:54:04.245Z,99.90
2023-05-20T08:56:32.798Z,99.90
2023-05-20T08:58:59.816Z,99.90
2023-05-20T09:01:27.024Z,99.90
2023-05-20T09:03:53.856Z,99.90
2023-05-20T09:06:20.754Z,99.90
2023-05-20T09:08:51.893Z,99.90
2023-05-20T09:11:19.737Z,99.90
2023-05-20T09:13:46.510Z,99.90
2023-05-20T09:16:13.580Z,99.90
2023-05-20T09:18:40.855Z,99.90
2023-05-20T09:21:07.795Z,99.90
2023-05-20T09:23:38.284Z,99.90
2023-05-20T09:26:05.298Z,99.90
2023-05-20T09:28:32.132Z,99.90
2023-05-20T09:30:59.870Z,99.90
2023-05-20T09:33:32.092Z,99.90
2023-05-20T09:36:10.145Z,99.90
2023-05-20T09:38:39.678Z,99.90
2023-05-20T09:41:08.865Z,99.90
2023-05-20T09:43:38.947Z,99.90
2023-05-20T09:46:06.163Z,99.90
2023-05-20T09:48:36.463Z,99.90
2023-05-20T09:51:05.218Z,99.90
2023-05-20T09:53:32.052Z,99.90
2023-05-20T09:55:59.101Z,99.90
2023-05-20T09:58:26.803Z,99.90
2023-05-20T10:00:54.140Z,99.90
2023-05-20T10:03:25.110Z,99.90
2023-05-20T10:06:10.519Z,99.90
2023-05-20T10:09:05.394Z,99.90
2023-05-20T10:12:23.246Z,99.90
2023-05-20T10:14:55.970Z,99.70
2023-05-20T10:17:35.706Z,98.50
2023-05-20T10:20:05.894Z,98.70
2023-05-20T10:22:33.825Z,99.10
2023-05-20T10:25:06.850Z,99.30
2023-05-20T10:27:48.804Z,99.50
2023-05-20T10:30:17.915Z,99.90
2023-05-20T10:33:03.084Z,99.90
2023-05-20T10:35:30.148Z,99.90
2023-05-20T10:38:10.548Z,99.50
2023-05-20T10:40:37.661Z,98.50
2023-05-20T10:43:15.405Z,97.90
2023-05-20T10:45:53.435Z,97.90
2023-05-20T10:48:23.719Z,97.80
2023-05-20T10:50:51.094Z,98.20
2023-05-20T10:53:32.357Z,97.40
2023-05-20T10:56:00.689Z,95.90
2023-05-20T10:58:27.477Z,95.70
2023-05-20T11:00:56.101Z,95.50
2023-05-20T11:03:23.893Z,95.80
2023-05-20T11:05:51.600Z,96.80
2023-05-20T11:08:28.314Z,96.40
2023-05-20T11:10:59.371Z,96.40
2023-05-20T11:13:27.224Z,96.70
2023-05-20T11:15:54.314Z,95.50
2023-05-20T11:18:21.305Z,95.90
2023-05-20T11:20:48.193Z,95.40
2023-05-20T11:23:15.992Z,95.30
2023-05-20T11:25:43.082Z,95.70
2023-05-20T11:28:16.391Z,95.90
2023-05-20T11:30:43.739Z,95.60
2023-05-20T11:33:13.701Z,95.40
2023-05-20T11:35:49.853Z,95.50
2023-05-20T11:38:18.370Z,95.20
2023-05-20T11:40:50.928Z,95.90
2023-05-20T11:43:19.269Z,95.70
2023-05-20T11:45:48.172Z,95.20
2023-05-20T11:48:17.730Z,94.20
2023-05-20T11:50:47.805Z,95.10
2023-05-20T11:53:16.979Z,95.60
2023-05-20T11:55:55.882Z,95.70
2023-05-20T11:58:24.489Z,95.10
2023-05-20T12:00:59.123Z,94.90
2023-05-20T12:03:32.957Z,94.10
2023-05-20T12:06:02.531Z,94.20
2023-05-20T12:08:31.522Z,93.90
2023-05-20T12:10:58.379Z,94.20
2023-05-20T12:13:25.161Z,95.50
2023-05-20T12:15:51.996Z,95.70
2023-05-20T12:18:18.785Z,95.60
2023-05-20T12:20:45.616Z,95.30
2023-05-20T12:23:12.432Z,94.40
2023-05-20T12:25:39.345Z,93.40
2023-05-20T12:28:06.817Z,91.70
2023-05-20T12:30:34.283Z,91.80
2023-05-20T12:33:02.375Z,91.30
2023-05-20T12:35:40.200Z,91.10
2023-05-20T12:38:07.788Z,90.30
2023-05-20T12:40:35.711Z,90.70
2023-05-20T12:43:04.441Z,90.50
2023-05-20T12:45:31.330Z,90.40
2023-05-20T12:47:58.432Z,90.20
2023-05-20T12:50:25.880Z,90.00
2023-05-20T12:52:52.900Z,88.80
2023-05-20T12:55:19.697Z,90.10
2023-05-20T12:57:47.387Z,89.50
2023-05-20T13:00:14.729Z,89.40
2023-05-20T13:02:43.235Z,89.60
2023-05-20T13:05:11.352Z,89.20
2023-05-20T13:07:38.760Z,89.20
2023-05-20T13:10:06.830Z,88.90
2023-05-20T13:12:34.759Z,87.90
2023-05-20T13:15:01.708Z,88.30
2023-05-20T13:17:28.931Z,89.90
2023-05-20T13:19:55.963Z,90.10
2023-05-20T13:22:23.089Z,90.40
2023-05-20T13:24:49.950Z,91.50
2023-05-20T13:27:16.786Z,91.80
2023-05-20T13:29:43.699Z,92.10
2023-05-20T13:32:10.651Z,92.40
2023-05-20T13:34:38.698Z,91.60
2023-05-20T13:37:06.027Z,91.00
2023-05-20T13:39:32.866Z,90.40
2023-05-20T13:41:59.877Z,90.70
2023-05-20T13:44:26.706Z,90.40
2023-05-20T13:46:54.008Z,88.80
2023-05-20T13:49:21.534Z,87.80
2023-05-20T13:51:48.403Z,86.70
2023-05-20T13:54:15.531Z,86.90
2023-05-20T13:56:42.628Z,87.40
2023-05-20T13:59:09.451Z,87.60
2023-05-20T14:01:39.010Z,89.60
2023-05-20T14:04:07.305Z,89.60
2023-05-20T14:06:34.266Z,90.10
2023-05-20T14:09:01.173Z,89.60
2023-05-20T14:11:27.984Z,88.70
2023-05-20T14:13:54.788Z,88.80
2023-05-20T14:16:21.823Z,87.30
2023-05-20T14:18:48.854Z,87.70
2023-05-20T14:21:15.611Z,86.70
2023-05-20T14:23:44.496Z,86.30
2023-05-20T14:26:11.722Z,85.80
2023-05-20T14:28:39.084Z,86.40
2023-05-20T14:31:08.960Z,88.00
2023-05-20T14:33:36.622Z,88.80
2023-05-20T14:36:04.109Z,90.10
2023-05-20T14:38:31.072Z,90.70
2023-05-20T14:40:57.920Z,89.60
2023-05-20T14:43:24.670Z,88.80
2023-05-20T14:45:52.640Z,86.80
2023-05-20T14:48:19.471Z,86.60
2023-05-20T14:50:47.664Z,86.90
2023-05-20T14:53:17.082Z,86.70
2023-05-20T14:55:43.921Z,85.70
2023-05-20T14:58:10.753Z,87.50
2023-05-20T15:00:37.701Z,88.60
2023-05-20T15:03:04.821Z,89.80
2023-05-20T15:05:31.814Z,89.00
2023-05-20T15:07:58.601Z,88.80
2023-05-20T15:10:25.701Z,89.90
2023-05-20T15:12:53.457Z,91.00
2023-05-20T15:15:21.494Z,91.40
2023-05-20T15:17:48.532Z,90.70
2023-05-20T15:20:15.467Z,90.90
2023-05-20T15:22:46.630Z,90.80
2023-05-20T15:25:14.096Z,91.50
2023-05-20T15:27:42.078Z,91.40
2023-05-20T15:30:10.025Z,91.00
2023-05-20T15:32:36.960Z,90.70
2023-05-20T15:35:04.393Z,90.50
2023-05-20T15:37:31.393Z,90.20
2023-05-20T15:39:58.249Z,90.80
2023-05-20T15:42:25.501Z,91.90
2023-05-20T15:44:52.361Z,92.60
2023-05-20T15:47:19.247Z,93.20
2023-05-20T15:49:46.174Z,92.70
2023-05-20T15:52:14.059Z,92.60
2023-05-20T15:54:41.029Z,92.40
2023-05-20T15:57:07.932Z,92.70
2023-05-20T15:59:34.834Z,92.60
2023-05-20T16:02:01.830Z,92.50
2023-05-20T16:04:28.830Z,92.60
2023-05-20T16:06:55.935Z,92.60
2023-05-20T16:09:22.680Z,93.00
2023-05-20T16:11:49.509Z,93.80
2023-05-20T16:14:16.789Z,94.10
2023-05-20T16:16:43.605Z,94.50
2023-05-20T16:19:10.525Z,94.30
2023-05-20T16:21:37.317Z,94.70
2023-05-20T16:24:04.553Z,94.90
2023-05-20T16:26:31.422Z,95.50
2023-05-20T16:28:58.293Z,95.70
2023-05-20T16:31:26.287Z,95.90
2023-05-20T16:33:53.240Z,96.20
2023-05-20T16:36:20.081Z,96.10
2023-05-20T16:38:47.333Z,96.50
2023-05-20T16:41:16.045Z,96.80
2023-05-20T16:43:43.088Z,96.90
2023-05-20T16:46:10.030Z,97.00
2023-05-20T16:48:36.914Z,97.20
2023-05-20T16:51:03.993Z,97.60
2023-05-20T16:53:30.907Z,97.60
2023-05-20T16:55:57.775Z,98.00
2023-05-20T16:58:24.953Z,98.20
2023-05-20T17:00:51.797Z,98.50
2023-05-20T17:03:18.634Z,98.80
2023-05-20T17:05:45.509Z,98.90
2023-05-20T17:08:12.261Z,99.10
2023-05-20T17:10:39.180Z,99.40
2023-05-20T17:13:06.189Z,99.40
2023-05-20T17:15:37.061Z,99.50
2023-05-20T17:18:04.325Z,99.70
2023-05-20T17:20:32.288Z,99.90
2023-05-20T17:22:59.335Z,99.90
2023-05-20T17:25:26.135Z,99.90
2023-05-20T17:27:53.002Z,99.90
2023-05-20T17:30:19.850Z,99.90
2023-05-20T17:32:46.800Z,99.90
2023-05-20T17:35:13.717Z,99.90
2023-05-20T17:37:40.546Z,99.90
2023-05-20T17:40:07.952Z,99.90
2023-05-20T17:42:34.761Z,99.90
2023-05-20T17:45:01.667Z,99.90
2023-05-20T17:47:28.463Z,99.90
2023-05-20T17:49:56.408Z,99.90
2023-05-20T17:52:23.133Z,99.90
2023-05-20T17:54:49.959Z,99.90
2023-05-20T17:57:18.898Z,99.90
2023-05-20T17:59:45.821Z,99.90
2023-05-20T18:02:12.798Z,99.90
2023-05-20T18:04:39.560Z,99.90
2023-05-20T18:07:07.432Z,99.90
2023-05-20T18:09:34.348Z,99.90
2023-05-20T18:12:01.194Z,99.90
2023-05-20T18:14:27.976Z,99.90
2023-05-20T18:16:54.900Z,99.90
2023-05-20T18:19:22.024Z,99.90
2023-05-20T18:21:49.399Z,99.90
2023-05-20T18:24:18.212Z,99.90
2023-05-20T18:26:45.879Z,99.90
2023-05-20T18:29:12.841Z,99.90
2023-05-20T18:31:40.822Z,99.90
2023-05-20T18:34:09.412Z,99.90
2023-05-20T18:36:37.368Z,99.90
2023-05-20T18:39:05.064Z,99.90
2023-05-20T18:41:45.840Z,99.90
2023-05-20T18:44:18.405Z,99.90
2023-05-20T18:46:46.072Z,99.90
2023-05-20T18:49:12.898Z,99.90
2023-05-20T18:51:40.733Z,99.90
2023-05-20T18:54:07.894Z,99.90
2023-05-20T18:56:35.079Z,99.90
2023-05-20T18:59:02.072Z,99.90
2023-05-20T19:01:29.070Z,99.90
2023-05-20T19:03:56.122Z,99.90
2023-05-20T19:06:22.974Z,99.90
2023-05-20T19:08:49.909Z,99.90
2023-05-20T19:11:16.809Z,99.90
2023-05-20T19:13:43.732Z,99.90
2023-05-20T19:16:10.743Z,99.90
2023-05-20T19:18:37.631Z,99.90
2023-05-20T19:21:04.833Z,99.90
2023-05-20T19:23:32.467Z,99.90
2023-05-20T19:25:59.348Z,99.90
2023-05-20T19:28:26.276Z,99.90
2023-05-20T19:30:53.457Z,99.90
2023-05-20T19:33:21.018Z,99.90
2023-05-20T19:35:48.468Z,99.90
2023-05-20T19:38:15.493Z,99.90
2023-05-20T19:40:47.118Z,99.90
2023-05-20T19:43:14.022Z,99.90
2023-05-20T19:45:40.773Z,99.90
2023-05-20T19:48:08.046Z,99.90
2023-05-20T19:50:34.882Z,99.90
2023-05-20T19:53:06.121Z,99.90
2023-05-20T19:55:36.412Z,99.90
2023-05-20T19:58:03.569Z,99.90
2023-05-20T20:00:30.631Z,99.90
2023-05-20T20:02:57.671Z,99.90
2023-05-20T20:05:26.057Z,99.90
2023-05-20T20:07:53.068Z,99.90
2023-05-20T20:10:20.351Z,99.90
2023-05-20T20:12:47.269Z,99.90
2023-05-20T20:15:14.226Z,99.90
2023-05-20T20:17:45.355Z,99.90
2023-05-20T20:20:15.445Z,99.90
2023-05-20T20:22:42.291Z,99.90
2023-05-20T20:25:09.405Z,99.90
2023-05-20T20:27:36.361Z,99.90
2023-05-20T20:30:03.665Z,99.90
2023-05-20T20:32:30.523Z,99.90
2023-05-20T20:34:58.124Z,99.90
2023-05-20T20:37:26.785Z,99.90
2023-05-20T20:39:54.534Z,99.90
2023-05-20T20:42:24.461Z,99.90
2023-05-20T20:44:55.623Z,99.90
2023-05-20T20:47:23.700Z,99.90
2023-05-20T20:49:50.642Z,99.90
2023-05-20T20:52:17.524Z,99.90
2023-05-20T20:54:44.345Z,99.90
2023-05-20T20:57:13.881Z,99.90
2023-05-20T20:59:47.545Z,99.90
2023-05-20T21:02:14.790Z,99.90
2023-05-20T21:04:42.726Z,99.90
2023-05-20T21:07:09.745Z,99.90
2023-05-20T21:09:36.731Z,99.90
2023-05-20T21:12:06.532Z,99.90
2023-05-20T21:14:33.433Z,99.90
2023-05-20T21:17:00.379Z,99.90
2023-05-20T21:19:27.755Z,99.90
2023-05-20T21:21:54.706Z,99.90
2023-05-20T21:24:21.661Z,99.90
2023-05-20T21:26:48.409Z,99.90
2023-05-20T21:29:15.079Z,99.90
2023-05-20T21:31:41.881Z,99.90
2023-05-20T21:34:08.599Z,99.90
2023-05-20T21:36:36.215Z,99.90
2023-05-20T21:39:03.043Z,99.90
2023-05-20T21:41:29.896Z,99.90
2023-05-20T21:43:56.987Z,99.90
2023-05-20T21:46:24.046Z,99.90
2023-05-20T21:48:50.847Z,99.90
2023-05-20T21:51:17.609Z,99.90
2023-05-20T21:53:44.491Z,99.90
2023-05-20T21:56:11.330Z,99.90
2023-05-20T21:58:41.188Z,99.90
2023-05-20T22:01:09.655Z,99.90
2023-05-20T22:03:36.943Z,99.90
2023-05-20T22:06:05.092Z,99.90
2023-05-20T22:08:33.848Z,99.90
2023-05-20T22:11:05.261Z,99.90
2023-05-20T22:13:33.211Z,99.90
2023-05-20T22:16:01.893Z,99.90
2023-05-20T22:18:29.402Z,99.90
2023-05-20T22:20:59.250Z,99.90
2023-05-20T22:23:29.308Z,99.90
2023-05-20T22:25:56.452Z,99.90
2023-05-20T22:28:23.744Z,99.90
2023-05-20T22:30:51.440Z,99.90
2023-05-20T22:33:18.392Z,99.90
2023-05-20T22:35:45.170Z,99.90
2023-05-20T22:38:11.887Z,99.90
2023-05-20T22:40:39.287Z,99.90
2023-05-20T22:43:06.282Z,99.90
2023-05-20T22:45:33.138Z,99.90
2023-05-20T22:48:00.102Z,99.90
2023-05-20T22:50:27.709Z,99.90
2023-05-20T22:52:54.923Z,99.90
2023-05-20T22:55:23.188Z,99.90
2023-05-20T22:57:50.034Z,99.90
2023-05-20T23:00:18.102Z,99.90
2023-05-20T23:02:49.491Z,99.90
2023-05-20T23:05:16.773Z,99.90
2023-05-20T23:07:44.810Z,99.90
2023-05-20T23:10:11.886Z,99.90
2023-05-20T23:12:38.939Z,99.90
2023-05-20T23:15:06.673Z,99.90
2023-05-20T23:17:33.491Z,99.90
2023-05-20T23:20:00.559Z,99.90
2023-05-20T23:22:27.640Z,99.90
2023-05-20T23:24:54.740Z,99.90
2023-05-20T23:27:21.539Z,99.90
2023-05-20T23:29:48.452Z,99.90
2023-05-20T23:32:15.400Z,99.90
2023-05-20T23:34:43.582Z,99.90
2023-05-20T23:37:10.491Z,99.90
2023-05-20T23:39:37.365Z,99.90
2023-05-20T23:42:05.251Z,99.90
2023-05-20T23:44:32.289Z,99.90
2023-05-20T23:46:59.107Z,99.90
2023-05-20T23:49:27.184Z,99.90
2023-05-20T23:51:54.207Z,99.90
2023-05-20T23:54:21.185Z,99.90
2023-05-20T23:56:48.246Z,99.90
2023-05-20T23:59:15.180Z,99.90
